createdAt,value
2019-01-23T00:00:38.693Z,20.27
2019-01-23T00:03:08.178Z,22.10
2019-01-23T00:05:37.614Z,21.80
2019-01-23T00:08:07.378Z,22.10
2019-01-23T00:10:36.614Z,21.47
2019-01-23T00:13:05.961Z,21.00
2019-01-23T00:15:35.230Z,21.10
2019-01-23T00:18:05.030Z,20.57
2019-01-23T00:20:34.369Z,21.30
2019-01-23T00:23:03.661Z,22.47
2019-01-23T00:25:32.974Z,20.97
2019-01-23T00:28:02.287Z,20.13
2019-01-23T00:30:31.556Z,21.07
2019-01-23T00:33:00.836Z,20.20
2019-01-23T00:35:30.124Z,20.00
2019-01-23T00:37:59.427Z,21.37
2019-01-23T00:40:28.681Z,20.47
2019-01-23T00:42:58.002Z,20.53
2019-01-23T00:45:27.357Z,20.30
2019-01-23T00:47:56.762Z,20.83
2019-01-23T00:50:26.170Z,20.60
2019-01-23T00:52:55.421Z,20.63
2019-01-23T00:55:24.715Z,20.57
2019-01-23T00:57:54.029Z,20.87
2019-01-23T01:00:25.275Z,20.23
2019-01-23T01:02:54.886Z,22.47
2019-01-23T01:05:24.579Z,20.57
2019-01-23T01:07:53.853Z,20.47
2019-01-23T01:10:23.522Z,20.73
2019-01-23T01:12:52.820Z,20.53
2019-01-23T01:15:22.105Z,20.23
2019-01-23T01:17:51.411Z,20.43
2019-01-23T01:20:21.069Z,20.53
2019-01-23T01:22:50.383Z,20.67
2019-01-23T01:25:19.676Z,21.30
2019-01-23T01:27:49.206Z,21.40
2019-01-23T01:30:23.223Z,20.47
2019-01-23T01:32:52.628Z,21.37
2019-01-23T01:35:21.952Z,21.13
2019-01-23T01:37:51.357Z,21.90
2019-01-23T01:40:20.918Z,21.40
2019-01-23T01:42:50.169Z,20.70
2019-01-23T01:45:19.545Z,21.93
2019-01-23T01:47:48.805Z,21.90
2019-01-23T01:50:20.140Z,21.93
2019-01-23T01:52:49.537Z,21.67
2019-01-23T01:55:18.851Z,20.40
2019-01-23T01:57:48.236Z,20.47
2019-01-23T02:00:22.572Z,20.43
2019-01-23T02:02:52.113Z,20.80
2019-01-23T02:05:21.378Z,20.20
2019-01-23T02:07:51.503Z,20.13
2019-01-23T02:10:22.012Z,20.20
2019-01-23T02:12:51.616Z,20.23
2019-01-23T02:15:20.958Z,22.33
2019-01-23T02:17:50.323Z,21.80
2019-01-23T02:20:24.957Z,20.40
2019-01-23T02:22:54.286Z,21.17
2019-01-23T02:25:23.891Z,21.80
2019-01-23T02:27:53.328Z,21.20
2019-01-23T02:30:24.676Z,20.43
2019-01-23T02:32:53.945Z,19.53
2019-01-23T02:35:23.047Z,21.10
2019-01-23T02:37:52.342Z,20.80
2019-01-23T02:40:24.068Z,21.47
2019-01-23T02:42:53.744Z,20.43
2019-01-23T02:45:23.614Z,20.83
2019-01-23T02:47:54.497Z,20.87
2019-01-23T02:50:23.799Z,20.40
2019-01-23T02:52:53.050Z,20.53
2019-01-23T02:55:22.361Z,21.53
2019-01-23T02:57:51.636Z,20.43
2019-01-23T03:00:21.367Z,21.57
2019-01-23T03:02:51.582Z,21.93
2019-01-23T03:05:22.020Z,22.20
2019-01-23T03:07:51.314Z,21.30
2019-01-23T03:10:23.792Z,21.03
2019-01-23T03:12:53.067Z,20.80
2019-01-23T03:15:22.345Z,21.20
2019-01-23T03:17:51.642Z,20.00
2019-01-23T03:20:21.596Z,20.63
2019-01-23T03:22:50.894Z,20.77
2019-01-23T03:25:20.586Z,20.10
2019-01-23T03:27:49.905Z,20.53
2019-01-23T03:30:23.663Z,19.93
2019-01-23T03:32:52.873Z,20.60
2019-01-23T03:35:22.145Z,20.90
2019-01-23T03:37:51.412Z,20.20
2019-01-23T03:40:22.099Z,19.90
2019-01-23T03:42:51.370Z,20.37
2019-01-23T03:45:21.255Z,20.90
2019-01-23T03:47:50.534Z,21.13
2019-01-23T03:50:21.266Z,20.43
2019-01-23T03:52:50.490Z,20.33
2019-01-23T03:55:20.150Z,21.57
2019-01-23T03:57:49.384Z,22.33
2019-01-23T04:00:20.690Z,22.00
2019-01-23T04:02:51.103Z,23.30
2019-01-23T04:05:21.076Z,22.90
2019-01-23T04:07:50.322Z,21.53
2019-01-23T04:10:19.619Z,20.20
2019-01-23T04:12:49.314Z,20.40
2019-01-23T04:15:18.777Z,22.33
2019-01-23T04:17:48.059Z,21.47
2019-01-23T04:20:19.506Z,20.87
2019-01-23T04:22:48.895Z,21.90
2019-01-23T04:25:18.207Z,22.60
2019-01-23T04:27:47.443Z,20.93
2019-01-23T04:30:19.529Z,21.50
2019-01-23T04:32:48.800Z,21.33
2019-01-23T04:35:18.344Z,21.20
2019-01-23T04:37:47.709Z,20.50
2019-01-23T04:40:16.940Z,20.13
2019-01-23T04:42:46.217Z,20.67
2019-01-23T04:45:16.186Z,21.03
2019-01-23T04:47:45.477Z,20.00
2019-01-23T04:50:15.862Z,20.70
2019-01-23T04:53:07.033Z,22.23
2019-01-23T04:55:39.110Z,20.17
2019-01-23T04:58:08.374Z,22.03
2019-01-23T05:00:37.619Z,20.70
2019-01-23T05:03:06.876Z,21.50
2019-01-23T05:05:36.103Z,21.57
2019-01-23T05:08:05.382Z,21.33
2019-01-23T05:10:34.646Z,21.07
2019-01-23T05:13:03.907Z,21.50
2019-01-23T05:15:33.136Z,20.97
2019-01-23T05:18:02.381Z,20.57
2019-01-23T05:20:31.633Z,21.83
2019-01-23T05:23:00.876Z,22.87
2019-01-23T05:25:30.430Z,21.60
2019-01-23T05:27:59.705Z,23.90
2019-01-23T05:30:28.946Z,22.83
2019-01-23T05:32:58.207Z,21.77
2019-01-23T05:35:27.464Z,23.03
2019-01-23T05:37:56.724Z,23.17
2019-01-23T05:40:25.976Z,22.23
2019-01-23T05:42:55.229Z,23.23
2019-01-23T05:45:24.529Z,22.53
2019-01-23T05:47:53.777Z,24.37
2019-01-23T05:50:23.030Z,23.60
2019-01-23T05:52:52.289Z,24.27
2019-01-23T05:55:21.533Z,23.50
2019-01-23T05:57:50.840Z,23.90
2019-01-23T06:00:21.751Z,23.43
2019-01-23T06:02:50.981Z,24.30
2019-01-23T06:05:20.846Z,22.73
2019-01-23T06:07:50.267Z,23.73
2019-01-23T06:10:19.709Z,23.63
2019-01-23T06:12:48.981Z,23.63
2019-01-23T06:15:18.226Z,23.03
2019-01-23T06:17:47.513Z,25.10
2019-01-23T06:20:18.718Z,23.03
2019-01-23T06:22:48.168Z,23.47
2019-01-23T06:25:17.517Z,23.07
2019-01-23T06:27:46.763Z,24.07
2019-01-23T06:30:21.383Z,24.00
2019-01-23T06:32:51.764Z,23.67
2019-01-23T06:35:21.033Z,22.93
2019-01-23T06:37:50.281Z,21.30
2019-01-23T06:40:20.795Z,23.53
2019-01-23T06:42:50.110Z,24.07
2019-01-23T06:45:19.666Z,22.80
2019-01-23T06:47:49.625Z,22.57
2019-01-23T06:50:20.364Z,22.53
2019-01-23T06:52:49.589Z,22.37
2019-01-23T06:55:20.265Z,22.63
2019-01-23T06:57:49.594Z,21.73
2019-01-23T07:00:23.438Z,23.70
2019-01-23T07:02:52.895Z,22.60
2019-01-23T07:05:22.446Z,21.10
2019-01-23T07:07:51.688Z,21.50
2019-01-23T07:10:23.083Z,22.67
2019-01-23T07:12:52.775Z,22.70
2019-01-23T07:15:22.070Z,21.90
2019-01-23T07:17:52.098Z,21.90
2019-01-23T07:20:23.218Z,23.87
2019-01-23T07:22:52.461Z,22.83
2019-01-23T07:25:21.810Z,22.90
2019-01-23T07:27:51.049Z,22.87
2019-01-23T07:30:28.333Z,22.90
2019-01-23T07:32:57.567Z,23.30
2019-01-23T07:35:26.924Z,23.60
2019-01-23T07:37:56.165Z,23.93
2019-01-23T07:40:25.433Z,23.93
2019-01-23T07:42:54.684Z,22.60
2019-01-23T07:45:25.081Z,24.03
2019-01-23T07:47:54.322Z,23.87
2019-01-23T07:50:23.578Z,22.80
2019-01-23T07:52:52.813Z,22.77
2019-01-23T07:55:22.172Z,23.00
2019-01-23T07:57:51.405Z,21.73
2019-01-23T08:00:31.045Z,21.70
2019-01-23T08:02:55.868Z,22.17
2019-01-23T08:05:27.009Z,22.97
2019-01-23T08:07:56.322Z,22.47
2019-01-23T08:10:25.686Z,21.60
2019-01-23T08:12:55.840Z,21.53
2019-01-23T08:15:30.714Z,22.40
2019-01-23T08:17:59.991Z,20.97
2019-01-23T08:20:29.447Z,21.57
2019-01-23T08:22:59.181Z,22.00
2019-01-23T08:25:28.767Z,22.20
2019-01-23T08:27:58.238Z,22.80
2019-01-23T08:30:27.702Z,22.73
2019-01-23T08:32:56.930Z,21.63
2019-01-23T08:35:27.502Z,22.23
2019-01-23T08:37:56.820Z,20.03
2019-01-23T08:40:26.064Z,22.73
2019-01-23T08:42:55.289Z,21.83
2019-01-23T08:45:24.573Z,21.30
2019-01-23T08:47:53.819Z,22.17
2019-01-23T08:50:48.509Z,21.10
2019-01-23T08:53:17.735Z,20.27
2019-01-23T08:55:53.245Z,21.17
2019-01-23T08:58:17.927Z,21.43
2019-01-23T09:00:47.572Z,21.43
2019-01-23T09:03:16.814Z,22.30
2019-01-23T09:05:46.078Z,21.63
2019-01-23T09:08:15.291Z,21.57
2019-01-23T09:10:44.522Z,21.73
2019-01-23T09:13:13.779Z,21.83
2019-01-23T09:15:43.014Z,22.07
2019-01-23T09:18:12.458Z,21.83
2019-01-23T09:20:41.816Z,21.27
2019-01-23T09:23:11.074Z,22.37
2019-01-23T09:25:40.290Z,20.63
2019-01-23T09:28:09.542Z,21.40
2019-01-23T09:31:18.305Z,20.73
2019-01-23T09:34:22.246Z,21.30
2019-01-23T09:37:01.975Z,20.03
2019-01-23T09:40:16.114Z,19.80
2019-01-23T09:43:16.872Z,19.23
2019-01-23T09:46:17.410Z,18.13
2019-01-23T09:49:06.287Z,19.37
2019-01-23T09:52:17.897Z,20.33
2019-01-23T09:54:47.134Z,19.33
2019-01-23T09:57:16.550Z,20.27
2019-01-23T09:59:45.899Z,19.50
2019-01-23T10:02:15.133Z,17.10
2019-01-23T10:04:44.405Z,15.53
2019-01-23T10:07:13.629Z,16.40
2019-01-23T10:09:42.885Z,16.43
2019-01-23T10:12:12.097Z,16.83
2019-01-23T10:14:41.373Z,17.00
2019-01-23T10:17:10.606Z,16.23
2019-01-23T10:19:39.711Z,18.17
2019-01-23T10:22:08.960Z,18.03
2019-01-23T10:24:38.218Z,16.60
2019-01-23T10:27:07.443Z,16.30
2019-01-23T10:29:36.714Z,17.03
2019-01-23T10:32:05.968Z,16.83
2019-01-23T10:34:37.674Z,17.07
2019-01-23T10:37:08.120Z,17.07
2019-01-23T10:39:37.396Z,17.73
2019-01-23T10:42:06.739Z,17.73
2019-01-23T10:44:36.403Z,17.10
2019-01-23T10:47:05.642Z,16.77
2019-01-23T10:49:35.199Z,18.40
2019-01-23T10:52:04.813Z,17.23
2019-01-23T10:54:34.084Z,17.20
2019-01-23T10:57:03.791Z,17.10
2019-01-23T10:59:32.844Z,16.60
2019-01-23T11:02:02.274Z,15.67
2019-01-23T11:04:31.569Z,16.57
2019-01-23T11:07:00.838Z,14.80
2019-01-23T11:09:30.095Z,17.30
2019-01-23T11:11:59.321Z,15.70
2019-01-23T11:14:28.591Z,16.33
2019-01-23T11:16:57.831Z,15.90
2019-01-23T11:19:27.087Z,16.80
2019-01-23T11:21:56.314Z,16.57
2019-01-23T11:24:26.039Z,16.90
2019-01-23T11:26:55.293Z,16.47
2019-01-23T11:29:24.541Z,17.97
2019-01-23T11:31:53.770Z,17.00
2019-01-23T11:34:23.032Z,18.37
2019-01-23T11:36:52.280Z,18.07
2019-01-23T11:39:21.511Z,17.40
2019-01-23T11:41:50.768Z,16.10
2019-01-23T11:44:20.005Z,17.37
2019-01-23T11:46:49.346Z,18.43
2019-01-23T11:49:18.576Z,16.93
2019-01-23T11:51:47.841Z,17.50
2019-01-23T11:54:17.076Z,16.23
2019-01-23T11:56:46.428Z,17.53
2019-01-23T11:59:15.672Z,14.97
2019-01-23T12:01:45.241Z,15.73
2019-01-23T12:04:14.569Z,14.33
2019-01-23T12:06:43.818Z,14.57
2019-01-23T12:09:13.050Z,16.53
2019-01-23T12:11:42.736Z,15.07
2019-01-23T12:14:12.069Z,15.23
2019-01-23T12:16:41.525Z,16.47
2019-01-23T12:19:15.195Z,15.07
2019-01-23T12:21:44.836Z,16.07
2019-01-23T12:24:14.094Z,16.17
2019-01-23T12:26:43.381Z,17.07
2019-01-23T12:29:12.736Z,15.40
2019-01-23T12:31:43.018Z,15.67
2019-01-23T12:34:12.508Z,15.80
2019-01-23T12:36:42.032Z,16.67
2019-01-23T12:39:11.738Z,15.40
2019-01-23T12:41:41.086Z,16.10
2019-01-23T12:44:10.970Z,14.67
2019-01-23T12:46:40.282Z,16.30
2019-01-23T12:49:11.895Z,14.07
2019-01-23T12:51:41.137Z,15.40
2019-01-23T12:54:10.541Z,16.90
2019-01-23T12:56:39.930Z,16.17
2019-01-23T12:59:09.657Z,16.80
2019-01-23T13:01:42.134Z,15.87
2019-01-23T13:04:09.949Z,15.87
2019-01-23T13:06:39.238Z,14.67
2019-01-23T13:09:10.031Z,15.07
2019-01-23T13:11:39.603Z,15.50
2019-01-23T13:14:09.026Z,14.63
2019-01-23T13:16:38.312Z,15.63
2019-01-23T13:19:07.609Z,16.73
2019-01-23T13:21:36.874Z,16.20
2019-01-23T13:24:06.302Z,16.40
2019-01-23T13:26:35.607Z,15.70
2019-01-23T13:29:04.867Z,16.53
2019-01-23T13:31:34.774Z,15.70
2019-01-23T13:34:04.120Z,16.63
2019-01-23T13:36:33.352Z,31.97
2019-01-23T13:39:02.690Z,36.93
2019-01-23T13:41:31.933Z,25.20
2019-01-23T13:44:01.195Z,24.53
2019-01-23T13:46:30.946Z,18.50
2019-01-23T13:49:00.190Z,16.73
2019-01-23T13:51:29.418Z,16.73
2019-01-23T13:53:58.672Z,15.90
2019-01-23T13:56:27.907Z,18.10
2019-01-23T13:58:57.213Z,18.67
2019-01-23T14:01:26.440Z,17.80
2019-01-23T14:03:55.701Z,17.77
2019-01-23T14:06:24.975Z,16.97
2019-01-23T14:08:55.130Z,17.07
2019-01-23T14:11:25.502Z,18.77
2019-01-23T14:13:56.632Z,18.03
2019-01-23T14:16:26.597Z,18.23
2019-01-23T14:18:55.812Z,18.00
2019-01-23T14:21:25.058Z,18.07
2019-01-23T14:23:54.288Z,18.33
2019-01-23T14:26:23.542Z,18.40
2019-01-23T14:28:52.778Z,19.87
2019-01-23T14:31:23.726Z,19.77
2019-01-23T14:33:52.964Z,18.40
2019-01-23T14:36:22.201Z,20.53
2019-01-23T14:38:51.445Z,21.20
2019-01-23T14:41:20.780Z,19.80
2019-01-23T14:43:51.111Z,18.73
2019-01-23T14:46:20.423Z,19.90
2019-01-23T14:48:50.630Z,18.53
2019-01-23T14:51:20.087Z,18.47
2019-01-23T14:53:49.365Z,18.57
2019-01-23T14:56:18.621Z,17.90
2019-01-23T14:58:48.257Z,19.07
2019-01-23T15:01:17.502Z,18.70
2019-01-23T15:03:46.751Z,18.17
2019-01-23T15:06:16.055Z,18.83
2019-01-23T15:08:45.371Z,18.90
2019-01-23T15:11:14.948Z,18.63
2019-01-23T15:13:44.163Z,18.47
2019-01-23T15:16:13.426Z,18.80
2019-01-23T15:18:42.999Z,20.03
2019-01-23T15:21:12.316Z,19.63
2019-01-23T15:23:41.545Z,20.47
2019-01-23T15:26:11.204Z,20.40
2019-01-23T15:28:40.440Z,21.87
2019-01-23T15:31:09.703Z,20.20
2019-01-23T15:33:38.942Z,20.93
2019-01-23T15:36:08.801Z,20.30
2019-01-23T15:38:38.028Z,20.40
2019-01-23T15:41:07.780Z,19.73
2019-01-23T15:43:39.316Z,19.73
2019-01-23T15:46:08.601Z,19.30
2019-01-23T15:48:39.331Z,20.27
2019-01-23T15:51:08.622Z,20.07
2019-01-23T15:53:38.349Z,21.13
2019-01-23T15:56:07.620Z,19.93
2019-01-23T15:58:36.844Z,21.90
2019-01-23T16:01:06.468Z,21.80
2019-01-23T16:03:35.756Z,28.87
2019-01-23T16:06:05.703Z,24.97
2019-01-23T16:08:34.959Z,25.33
2019-01-23T16:11:04.287Z,23.73
2019-01-23T16:13:33.560Z,25.27
2019-01-23T16:16:02.856Z,26.17
2019-01-23T16:18:33.559Z,28.27
2019-01-23T16:21:02.813Z,27.73
2019-01-23T16:23:32.080Z,24.90
2019-01-23T16:26:01.355Z,34.77
2019-01-23T16:28:30.678Z,31.17
2019-01-23T16:31:01.119Z,24.30
2019-01-23T16:33:30.410Z,22.57
2019-01-23T16:36:00.872Z,30.33
2019-01-23T16:38:30.133Z,25.77
2019-01-23T16:40:59.511Z,25.80
2019-01-23T16:43:29.058Z,24.93
2019-01-23T16:45:58.492Z,23.17
2019-01-23T16:48:27.861Z,22.57
2019-01-23T16:50:57.075Z,21.93
2019-01-23T16:53:28.120Z,22.90
2019-01-23T16:55:57.395Z,24.73
2019-01-23T16:58:26.674Z,21.37
2019-01-23T17:00:55.925Z,20.97
2019-01-23T17:03:25.221Z,24.33
2019-01-23T17:05:54.490Z,21.40
2019-01-23T17:08:23.771Z,24.80
2019-01-23T17:10:53.035Z,36.73
2019-01-23T17:13:22.593Z,25.17
2019-01-23T17:15:51.851Z,25.30
2019-01-23T17:18:21.111Z,23.33
2019-01-23T17:20:50.678Z,21.47
2019-01-23T17:23:20.248Z,22.30
2019-01-23T17:25:49.493Z,20.90
2019-01-23T17:28:21.772Z,22.53
2019-01-23T17:30:51.003Z,23.23
2019-01-23T17:33:20.250Z,23.33
2019-01-23T17:35:49.480Z,21.80
2019-01-23T17:38:19.968Z,22.20
2019-01-23T17:40:51.617Z,25.17
2019-01-23T17:43:21.157Z,26.97
2019-01-23T17:45:50.432Z,22.50
2019-01-23T17:48:19.689Z,21.67
2019-01-23T17:50:48.969Z,22.10
2019-01-23T17:53:20.361Z,20.83
2019-01-23T17:55:49.602Z,22.87
2019-01-23T17:58:18.885Z,23.07
2019-01-23T18:00:58.919Z,23.37
2019-01-23T18:03:28.188Z,24.50
2019-01-23T18:05:57.406Z,24.83
2019-01-23T18:08:26.677Z,24.87
2019-01-23T18:10:57.388Z,23.13
2019-01-23T18:13:26.851Z,24.20
2019-01-23T18:16:01.323Z,24.33
2019-01-23T18:18:30.594Z,24.63
2019-01-23T18:20:59.836Z,23.73
2019-01-23T18:23:31.593Z,22.47
2019-01-23T18:26:00.650Z,23.63
2019-01-23T18:28:29.894Z,22.93
2019-01-23T18:31:13.268Z,25.53
2019-01-23T18:33:59.830Z,22.83
2019-01-23T18:37:01.161Z,22.13
2019-01-23T18:40:10.644Z,22.47
2019-01-23T18:43:05.483Z,22.53
2019-01-23T18:46:04.655Z,20.73
2019-01-23T18:49:21.336Z,20.83
2019-01-23T18:52:12.325Z,21.57
2019-01-23T18:54:43.076Z,19.87
2019-01-23T18:57:15.647Z,23.67
2019-01-23T18:59:45.263Z,22.47
2019-01-23T19:02:14.768Z,25.27
2019-01-23T19:04:44.372Z,24.73
2019-01-23T19:07:13.989Z,26.33
2019-01-23T19:09:43.225Z,26.07
2019-01-23T19:12:12.692Z,27.87
2019-01-23T19:14:42.281Z,27.80
2019-01-23T19:17:11.547Z,25.67
2019-01-23T19:19:40.826Z,28.90
2019-01-23T19:22:10.103Z,28.50
2019-01-23T19:24:41.612Z,27.70
2019-01-23T19:27:10.982Z,24.93
2019-01-23T19:29:40.225Z,24.53
2019-01-23T19:32:09.478Z,24.27
2019-01-23T19:34:38.732Z,24.97
2019-01-23T19:37:09.206Z,27.40
2019-01-23T19:39:40.913Z,27.93
2019-01-23T19:42:10.285Z,28.43
2019-01-23T19:44:39.901Z,30.50
2019-01-23T19:47:09.190Z,29.53
2019-01-23T19:49:38.489Z,26.47
2019-01-23T19:52:07.769Z,27.00
2019-01-23T19:54:37.000Z,25.97
2019-01-23T19:57:07.680Z,26.40
2019-01-23T19:59:36.909Z,25.47
2019-01-23T20:02:08.678Z,24.10
2019-01-23T20:04:38.688Z,25.10
2019-01-23T20:07:07.945Z,25.67
2019-01-23T20:09:37.488Z,26.27
2019-01-23T20:12:06.926Z,24.97
2019-01-23T20:14:36.462Z,26.93
2019-01-23T20:17:05.729Z,27.23
2019-01-23T20:19:34.957Z,31.27
2019-01-23T20:22:05.955Z,29.97
2019-01-23T20:24:35.468Z,29.10
2019-01-23T20:27:05.253Z,30.97
2019-01-23T20:29:34.485Z,27.23
2019-01-23T20:32:03.744Z,26.27
2019-01-23T20:34:32.974Z,26.83
2019-01-23T20:37:02.227Z,27.07
2019-01-23T20:39:32.071Z,26.80
2019-01-23T20:42:01.335Z,26.60
2019-01-23T20:44:30.567Z,27.97
2019-01-23T20:47:00.110Z,27.50
2019-01-23T20:49:30.374Z,28.53
2019-01-23T20:52:02.040Z,27.90
2019-01-23T20:54:31.293Z,26.60
2019-01-23T20:57:02.006Z,40.27
2019-01-23T20:59:32.596Z,28.23
2019-01-23T21:02:02.242Z,26.23
2019-01-23T21:04:32.180Z,25.83
2019-01-23T21:07:01.421Z,26.20
2019-01-23T21:09:30.675Z,25.73
2019-01-23T21:12:00.218Z,26.17
2019-01-23T21:14:30.312Z,25.53
2019-01-23T21:16:59.541Z,24.97
2019-01-23T21:19:30.684Z,27.80
2019-01-23T21:22:01.002Z,27.17
2019-01-23T21:24:30.571Z,27.87
2019-01-23T21:27:00.893Z,26.17
2019-01-23T21:29:30.173Z,27.37
2019-01-23T21:31:59.405Z,26.50
2019-01-23T21:34:28.673Z,27.27
2019-01-23T21:36:58.210Z,27.67
2019-01-23T21:39:29.759Z,27.00
2019-01-23T21:41:58.990Z,28.07
2019-01-23T21:44:29.350Z,27.23
2019-01-23T21:46:58.894Z,27.00
2019-01-23T21:49:28.142Z,27.03
2019-01-23T21:51:57.360Z,28.63
2019-01-23T21:54:26.900Z,27.97
2019-01-23T21:56:56.371Z,29.93
2019-01-23T21:59:25.898Z,30.17
2019-01-23T22:01:55.125Z,30.70
2019-01-23T22:04:24.386Z,32.17
2019-01-23T22:06:53.614Z,30.43
2019-01-23T22:09:22.864Z,28.53
2019-01-23T22:11:52.087Z,28.47
2019-01-23T22:14:21.353Z,28.20
2019-01-23T22:16:50.586Z,28.57
2019-01-23T22:19:20.153Z,27.03
2019-01-23T22:21:51.846Z,27.33
2019-01-23T22:24:21.098Z,28.00
2019-01-23T22:26:50.335Z,28.33
2019-01-23T22:29:21.605Z,26.90
2019-01-23T22:31:52.003Z,26.50
2019-01-23T22:34:22.357Z,27.73
2019-01-23T22:36:52.894Z,28.03
2019-01-23T22:39:22.166Z,30.60
2019-01-23T22:41:51.401Z,27.97
2019-01-23T22:44:20.653Z,29.17
2019-01-23T22:46:49.909Z,28.60
2019-01-23T22:49:19.165Z,26.70
2019-01-23T22:51:48.397Z,26.40
2019-01-23T22:54:17.954Z,28.67
2019-01-23T22:56:47.182Z,28.07
2019-01-23T22:59:17.274Z,28.37
2019-01-23T23:01:46.729Z,27.37
2019-01-23T23:04:15.953Z,27.97
2019-01-23T23:06:45.208Z,28.40
2019-01-23T23:09:15.261Z,28.10
2019-01-23T23:11:44.514Z,28.70
2019-01-23T23:14:13.769Z,28.23
2019-01-23T23:16:43.019Z,26.63
2019-01-23T23:19:13.625Z,26.70
2019-01-23T23:21:43.215Z,26.80
2019-01-23T23:24:12.803Z,26.23
2019-01-23T23:26:42.042Z,26.03
2019-01-23T23:29:11.524Z,26.43
2019-01-23T23:31:40.773Z,28.27
2019-01-23T23:34:10.292Z,26.07
2019-01-23T23:36:39.739Z,26.43
2019-01-23T23:39:11.165Z,26.43
2019-01-23T23:41:40.732Z,26.13
2019-01-23T23:44:09.964Z,28.27
2019-01-23T23:46:39.242Z,31.47
2019-01-23T23:49:08.749Z,28.03
2019-01-23T23:51:37.994Z,28.03
2019-01-23T23:54:07.327Z,40.33
2019-01-23T23:56:36.914Z,36.73
2019-01-23T23:59:06.153Z,32.70
